Weather History for Midland Airpark, TX

Change the Weather History Date:

Saturday, November 24, 2012

  Actual Average (KMAF) Record (KMAF)
Temperature  
Mean Temperature 50 °F 49 °F  
Max Temperature 66 °F 63 °F 83 °F (1965)
Min Temperature 35 °F 36 °F 10 °F (1938)
Degree Days  
Heating Degree Days 14 16  
Month to date heating degree days 269  
Since 1 July heating degree days 378  
Moisture  
Dew Point 26 °F    
Average Humidity 40    
Maximum Humidity 60    
Minimum Humidity 24    
Precipitation  
Precipitation 0.00 in 0.02 in 1.00 in (1984)
Month to date precipitation 0.56  
Year to date precipitation 13.87  
Snow  
Snow 0.00 in - - ()
Month to date snowfall  
Since 1 July snowfall  
Since 1 September snowfall  
Snow Depth -    
Sea Level Pressure  
Sea Level Pressure 30.26 in    
Wind  
Wind Speed 4 mph (SSW)    
Max Wind Speed 15 mph    
Max Gust Speed 20 mph    
Visibility 10 miles    
Events      
T = Trace of Precipitation, MM = Missing Value Source: NWS Daily Summary

Daily Weather History Graph

Daily Weather History Graph

Search for Another Location

Airport:

Trip Planner

Search our weather history database for the weather conditions in past years. The results will help you decide how hot, cold, wet, or windy it might be!

Date:

Astronomy

Nov. 24, 2012 Rise Set
Actual Time 7:25 AM CST 5:44 PM CST
Civil Twilight 6:59 AM CST 6:11 PM CST
Nautical Twilight 6:29 AM CST 6:41 PM CST
Astronomical Twilight 5:59 AM CST 7:10 PM CST
Moon 3:21 PM CST (11/24) 3:54 AM CST (11/24)
Length of Visible Light 11h 11m
Length of Day
10h 19m
Waxing Gibbous, 87% of the Moon is Illuminated
Nov 24
Waxing Gibbous
Nov 28
Full
Dec 6
Last Quarter
Dec 13
New
Dec 19
First Quarter

Hourly Weather History & Observations

Time (CST) Temp. Windchill Dew Point Humidity Pressure Visibility Wind Dir Wind Speed Gust Speed Precip Events Conditions
12:15 AM 41.4 °F - 19.8 °F 42% 30.46 in 10.0 mi Calm Calm - N/A   Clear
12:35 AM 41.2 °F - 20.3 °F 43% 30.46 in 10.0 mi Calm Calm - N/A   Clear
12:55 AM 40.5 °F - 20.8 °F 46% 30.46 in 10.0 mi Calm Calm - N/A   Clear
1:15 AM 39.2 °F - 21.7 °F 50% 30.45 in 10.0 mi Calm Calm - N/A   Clear
1:35 AM 39.6 °F - 20.7 °F 47% 30.45 in 10.0 mi Calm Calm - N/A   Clear
1:55 AM 40.1 °F - 19.4 °F 43% 30.44 in 10.0 mi Calm Calm - N/A   Clear
2:15 AM 39.9 °F - 19.6 °F 44% 30.44 in 10.0 mi Calm Calm - N/A   Clear
2:35 AM 38.5 °F - 21.6 °F 51% 30.44 in 10.0 mi Calm Calm - N/A   Clear
2:55 AM 38.3 °F - 22.1 °F 52% 30.44 in 10.0 mi Calm Calm - N/A   Clear
3:15 AM 37.9 °F - 22.1 °F 53% 30.43 in 10.0 mi Calm Calm - N/A   Clear
3:35 AM 37.4 °F - 21.7 °F 53% 30.42 in 10.0 mi Calm Calm - N/A   Clear
3:55 AM 37.4 °F - 22.5 °F 55% 30.41 in 10.0 mi Calm Calm - N/A   Clear
4:15 AM 37.2 °F - 22.6 °F 56% 30.41 in 10.0 mi Calm Calm - N/A   Clear
4:35 AM 36.3 °F - 22.6 °F 58% 30.40 in 10.0 mi Calm Calm - N/A   Clear
4:55 AM 35.6 °F - 21.6 °F 57% 30.40 in 10.0 mi Calm Calm - N/A   Clear
5:15 AM 36.0 °F - 21.9 °F 57% 30.40 in 10.0 mi Calm Calm - N/A   Clear
5:35 AM 36.3 °F - 22.8 °F 58% 30.39 in 10.0 mi Calm Calm - N/A   Clear
5:55 AM 35.8 °F - 23.2 °F 60% 30.40 in 10.0 mi Calm Calm - N/A   Clear
6:15 AM 35.8 °F - 22.8 °F 59% 30.40 in 10.0 mi Calm Calm - N/A   Clear
6:35 AM 36.3 °F - 22.6 °F 58% 30.40 in 10.0 mi Calm Calm - N/A   Clear
6:55 AM 36.3 °F - 22.5 °F 57% 30.40 in 10.0 mi Calm Calm - N/A   Clear
7:15 AM 35.6 °F 32.8 °F 21.9 °F 58% 30.40 in 10.0 mi WSW 3.5 mph - N/A   Clear
7:35 AM 35.4 °F - 21.7 °F 58% 30.40 in 10.0 mi Calm Calm - N/A   Clear
7:55 AM 36.0 °F - 21.6 °F 56% 30.40 in 10.0 mi Calm Calm - N/A   Clear
8:15 AM 37.4 °F 34.9 °F 22.5 °F 55% 30.39 in 10.0 mi SSW 3.5 mph - N/A   Clear
8:35 AM 41.2 °F 38.2 °F 22.1 °F 47% 30.39 in 10.0 mi South 4.6 mph - N/A   Clear
8:55 AM 45.3 °F 40.1 °F 20.1 °F 37% 30.38 in 10.0 mi South 10.4 mph - N/A   Clear
9:15 AM 47.5 °F - 19.8 °F 33% 30.37 in 10.0 mi South 10.4 mph - N/A   Clear
9:35 AM 48.7 °F - 20.1 °F 32% 30.37 in 10.0 mi South 11.5 mph - N/A   Clear
9:55 AM 50.2 °F - 19.9 °F 30% 30.37 in 10.0 mi South 10.4 mph - N/A   Clear
10:15 AM 52.0 °F - 19.8 °F 28% 30.37 in 10.0 mi SSW 10.4 mph 16.1 mph N/A   Clear
10:35 AM 53.1 °F - 20.3 °F 28% 30.36 in 10.0 mi South 10.4 mph 17.3 mph N/A   Clear
10:55 AM 54.7 °F - 20.1 °F 26% 30.35 in 10.0 mi SSW 8.1 mph - N/A   Clear
11:15 AM 56.3 °F - 20.5 °F 25% 30.34 in 10.0 mi SSW 11.5 mph - N/A   Clear
11:35 AM 57.4 °F - 21.0 °F 24% 30.33 in 10.0 mi SSW 10.4 mph 17.3 mph N/A   Clear
11:55 AM 58.5 °F - 21.6 °F 24% 30.31 in 10.0 mi SW 10.4 mph - N/A   Clear
12:15 PM 59.4 °F - 22.8 °F 25% 30.28 in 10.0 mi SW 15.0 mph - N/A   Clear
12:35 PM 60.4 °F - 23.7 °F 24% 30.26 in 10.0 mi SW 10.4 mph - N/A   Clear
12:55 PM 61.2 °F - 25.7 °F 26% 30.24 in 10.0 mi SSW 13.8 mph - N/A   Clear
1:15 PM 61.7 °F - 26.2 °F 26% 30.22 in 10.0 mi SSW 11.5 mph 16.1 mph N/A   Clear
1:35 PM 63.0 °F - 27.5 °F 26% 30.21 in 10.0 mi SSW 13.8 mph 17.3 mph N/A   Clear
1:55 PM 63.7 °F - 28.6 °F 27% 30.20 in 10.0 mi SSW 12.7 mph 19.6 mph N/A   Clear
2:15 PM 64.2 °F - 29.7 °F 27% 30.18 in 10.0 mi SSW 12.7 mph 18.4 mph N/A   Clear
2:35 PM 64.8 °F - 30.6 °F 28% 30.17 in 10.0 mi SW 9.2 mph - N/A   Clear
2:55 PM 65.5 °F - 31.5 °F 28% 30.15 in 10.0 mi SSW 13.8 mph 18.4 mph N/A   Clear
3:15 PM 65.8 °F - 32.0 °F 28% 30.14 in 10.0 mi SW 11.5 mph 19.6 mph N/A   Clear
3:35 PM 66.2 °F - 32.2 °F 28% 30.14 in 10.0 mi SSW 8.1 mph - N/A   Clear
3:55 PM 66.2 °F - 32.2 °F 28% 30.13 in 10.0 mi South 12.7 mph - N/A   Clear
4:15 PM 66.4 °F - 32.7 °F 29% 30.12 in 10.0 mi SSW 9.2 mph - N/A   Clear
4:35 PM 66.4 °F - 33.3 °F 29% 30.12 in 10.0 mi SSW 10.4 mph - N/A   Clear
4:55 PM 66.2 °F - 33.3 °F 29% 30.12 in 10.0 mi SSW 10.4 mph - N/A   Clear
5:15 PM 65.7 °F - 32.9 °F 30% 30.11 in 10.0 mi SSW 9.2 mph - N/A   Clear
5:35 PM 64.9 °F - 33.1 °F 31% 30.10 in 10.0 mi South 8.1 mph - N/A   Clear
5:55 PM 63.5 °F - 33.1 °F 32% 30.10 in 10.0 mi South 6.9 mph - N/A   Clear
6:15 PM 62.1 °F - 33.3 °F 34% 30.10 in 10.0 mi South 6.9 mph - N/A   Clear
6:35 PM 61.0 °F - 33.4 °F 36% 30.10 in 10.0 mi South 6.9 mph - N/A   Clear
6:55 PM 60.4 °F - 33.8 °F 37% 30.10 in 10.0 mi South 8.1 mph - N/A   Clear
7:15 PM 59.5 °F - 33.8 °F 38% 30.09 in 10.0 mi South 6.9 mph - N/A   Clear
7:35 PM 58.3 °F - 33.6 °F 39% 30.09 in 10.0 mi South 9.2 mph - N/A   Clear
7:55 PM 58.1 °F - 32.4 °F 38% 30.09 in 10.0 mi South 10.4 mph - N/A   Clear
8:15 PM 57.2 °F - 32.0 °F 38% 30.09 in 10.0 mi South 11.5 mph - N/A   Clear
8:35 PM 56.5 °F - 32.2 °F 40% 30.08 in 10.0 mi South 11.5 mph - N/A   Clear
8:55 PM 55.9 °F - 32.9 °F 42% 30.08 in 10.0 mi South 10.4 mph - N/A   Clear
9:15 PM 55.6 °F - 33.3 °F 43% 30.07 in 10.0 mi South 11.5 mph - N/A   Clear
9:35 PM 55.6 °F - 33.4 °F 43% 30.07 in 10.0 mi South 9.2 mph - N/A   Clear
9:55 PM 55.4 °F - 33.4 °F 43% 30.07 in 10.0 mi South 12.7 mph 17.3 mph N/A   Clear
10:15 PM 55.2 °F - 33.4 °F 44% 30.07 in 10.0 mi South 12.7 mph - N/A   Clear
10:35 PM 54.9 °F - 33.1 °F 44% 30.07 in 10.0 mi South 13.8 mph 19.6 mph N/A   Clear
10:55 PM 54.9 °F - 32.9 °F 43% 30.06 in 10.0 mi South 12.7 mph 17.3 mph N/A   Clear
11:15 PM 54.5 °F - 32.4 °F 43% 30.06 in 10.0 mi South 15.0 mph - N/A   Clear
11:35 PM 54.1 °F - 32.2 °F 43% 30.05 in 10.0 mi South 12.7 mph - N/A   Clear
11:55 PM 53.4 °F - 32.0 °F 44% 30.05 in 10.0 mi South 12.7 mph - N/A   Clear